Time;durP1;ratioP1;P1;durP2;ratioP2;P2;SDS_P1;SDS_P2;PMS_P1;PMS_P2;Temp;Humidity;BMP_temperature;BMP_pressure;BME280_temperature;BME280_humidity;BME280_pressure;Samples;Min_cycle;Max_cycle;Signal;HPM_P1;HPM_P2
2022/08/11 00:01:20;;;;;;;3.97;1.40;;;28.10;95.70;;;;;;4986246;28;20558;-81
2022/08/11 00:03:55;;;;;;;4.20;1.30;;;28.10;95.90;;;;;;4980430;28;20610;-81
2022/08/11 00:06:26;;;;;;;2.90;1.40;;;28.00;95.70;;;;;;4983604;28;20042;-82
2022/08/11 00:08:55;;;;;;;2.75;1.35;;;28.00;95.60;;;;;;4982680;28;20043;-81
2022/08/11 00:11:32;;;;;;;3.05;1.38;;;28.00;95.80;;;;;;4971435;28;20073;-81
2022/08/11 00:14:02;;;;;;;2.42;1.50;;;27.90;95.80;;;;;;4986487;28;20701;-82
2022/08/11 00:16:32;;;;;;;3.53;1.38;;;27.90;95.80;;;;;;4988683;28;20042;-82
2022/08/11 00:19:03;;;;;;;2.92;1.88;;;27.90;95.90;;;;;;4969260;28;20050;-81
2022/08/11 00:21:39;;;;;;;4.30;1.42;;;27.80;96.00;;;;;;4986139;28;20511;-81
2022/08/11 00:24:33;;;;;;;2.70;1.40;;;27.70;96.30;;;;;;4969494;28;20046;-80
2022/08/11 00:27:19;;;;;;;3.63;1.40;;;27.70;96.30;;;;;;4986393;28;20042;-82
2022/08/11 00:29:52;;;;;;;2.10;1.30;;;27.80;96.20;;;;;;4987319;28;20471;-82
2022/08/11 00:32:21;;;;;;;2.58;1.55;;;27.90;96.00;;;;;;4985553;28;20500;-81
2022/08/11 00:34:53;;;;;;;2.22;1.27;;;27.90;96.10;;;;;;4975247;28;20192;-82
2022/08/11 00:37:48;;;;;;;1.83;1.25;;;27.90;96.20;;;;;;4985046;28;20498;-82
2022/08/11 00:40:23;;;;;;;2.10;1.27;;;27.80;96.30;;;;;;4970394;28;20141;-82
2022/08/11 00:43:09;;;;;;;1.90;1.27;;;27.80;96.30;;;;;;4969830;28;20062;-81
2022/08/11 00:46:08;;;;;;;2.10;1.30;;;27.80;96.20;;;;;;4978641;28;20093;-81
2022/08/11 00:48:46;;;;;;;3.13;1.55;;;27.90;96.20;;;;;;4958586;28;20047;-81
2022/08/11 00:51:31;;;;;;;2.65;1.52;;;28.00;96.00;;;;;;4963327;28;20051;-82
2022/08/11 00:54:42;;;;;;;3.97;1.33;;;28.00;96.20;;;;;;4947000;28;20129;-81
2022/08/11 00:57:36;;;;;;;4.15;1.58;;;27.90;96.70;;;;;;4962992;28;20157;-82
2022/08/11 01:00:12;;;;;;;3.85;1.50;;;27.90;96.50;;;;;;4963271;28;20145;-82
2022/08/11 01:03:17;;;;;;;3.00;1.30;;;27.80;96.60;;;;;;4943218;29;20047;-81
2022/08/11 01:06:05;;;;;;;1.85;1.45;;;27.70;96.70;;;;;;4963434;28;20146;-82
2022/08/11 01:09:08;;;;;;;3.22;1.50;;;27.60;96.70;;;;;;4943416;29;20058;-83
2022/08/11 01:12:25;;;;;;;1.73;1.30;;;27.60;96.70;;;;;;4956853;28;20055;-82
2022/08/11 01:15:30;;;;;;;3.72;1.40;;;27.50;96.70;;;;;;4948618;28;20051;-82
2022/08/11 01:18:40;;;;;;;3.17;1.50;;;27.50;96.70;;;;;;4948265;28;20051;-82
2022/08/11 01:21:53;;;;;;;2.08;1.42;;;27.40;96.70;;;;;;4897258;29;20051;-82
2022/08/11 01:24:56;;;;;;;2.13;1.30;;;27.30;96.70;;;;;;4960962;28;20082;-82
2022/08/11 01:28:02;;;;;;;1.90;1.63;;;27.30;96.70;;;;;;4955128;28;20051;-82
2022/08/11 01:31:21;;;;;;;2.20;1.60;;;27.30;96.70;;;;;;4960096;28;20051;-82
2022/08/11 01:34:19;;;;;;;4.18;1.35;;;27.30;96.70;;;;;;4959058;28;20054;-82
2022/08/11 01:37:15;;;;;;;;;;;27.30;96.70;;;;;;4962763;28;20059;-78
2022/08/11 01:40:17;;;;;;;2.33;1.40;;;27.30;96.70;;;;;;4942286;28;19926;-78
2022/08/11 01:46:15;;;;;;;2.30;1.25;;;27.30;96.70;;;;;;4962062;28;20580;-78
2022/08/11 01:48:52;;;;;;;2.13;1.23;;;27.20;96.70;;;;;;4967850;28;20515;-78
2022/08/11 01:51:30;;;;;;;1.48;1.38;;;27.30;96.60;;;;;;4965823;28;20046;-78
2022/08/11 01:54:05;;;;;;;2.17;1.33;;;27.30;96.40;;;;;;4981982;28;20046;-79
2022/08/11 01:56:55;;;;;;;2.85;1.02;;;27.20;96.60;;;;;;4977764;28;20570;-78
2022/08/11 01:59:32;;;;;;;3.63;1.30;;;27.20;96.60;;;;;;4964261;28;20050;-78
2022/08/11 02:05:25;;;;;;;4.05;1.80;;;27.20;96.70;;;;;;4979521;28;20061;-78
2022/08/11 02:08:01;;;;;;;3.53;1.63;;;27.20;96.70;;;;;;4970024;28;20463;-78
2022/08/11 02:13:36;;;;;;;2.00;1.37;;;27.10;96.70;;;;;;4984277;28;20054;-78
2022/08/11 02:16:15;;;;;;;1.50;1.23;;;27.20;96.70;;;;;;4987399;28;20057;-78
2022/08/11 02:24:39;;;;;;;3.55;1.50;;;27.10;96.70;;;;;;4983962;28;20094;-78
2022/08/11 02:27:17;;;;;;;3.05;1.30;;;27.00;96.70;;;;;;4985479;28;20146;-78
2022/08/11 02:29:55;;;;;;;3.05;1.63;;;27.00;96.70;;;;;;4979644;28;20104;-78
2022/08/11 02:35:24;;;;;;;2.08;1.25;;;27.00;96.70;;;;;;4986126;28;20048;-78
2022/08/11 02:38:07;;;;;;;3.28;1.30;;;26.90;96.70;;;;;;4985315;28;20409;-78
2022/08/11 02:40:42;;;;;;;2.60;1.27;;;26.90;96.70;;;;;;4964867;28;20073;-78
2022/08/11 02:43:25;;;;;;;2.42;1.30;;;26.90;96.70;;;;;;4985265;28;20515;-78
2022/08/11 02:46:15;;;;;;;2.95;1.30;;;26.90;96.70;;;;;;4969558;28;20985;-80
2022/08/11 02:52:04;;;;;;;2.40;1.20;;;27.00;96.70;;;;;;4990179;28;20047;-82
2022/08/11 02:54:38;;;;;;;3.88;1.30;;;27.00;96.70;;;;;;4986666;28;20058;-82
2022/08/11 02:57:15;;;;;;;2.83;1.30;;;27.10;96.70;;;;;;4978438;28;20125;-82
2022/08/11 02:59:52;;;;;;;5.45;1.83;;;27.10;96.70;;;;;;4990149;28;20045;-82
2022/08/11 03:02:33;;;;;;;2.17;1.25;;;27.10;96.70;;;;;;4978530;28;20583;-82
2022/08/11 03:05:16;;;;;;;2.63;1.25;;;27.10;96.70;;;;;;4988820;28;20078;-82
2022/08/11 03:08:02;;;;;;;3.42;1.17;;;27.10;96.70;;;;;;4983486;28;20050;-83
2022/08/11 03:10:41;;;;;;;3.55;1.40;;;27.10;96.70;;;;;;4988851;28;20109;-82
2022/08/11 03:19:10;;;;;;;1.23;0.90;;;27.10;96.70;;;;;;4986316;28;20552;-79
2022/08/11 03:21:54;;;;;;;3.53;1.20;;;27.10;96.70;;;;;;4987891;28;20122;-78
2022/08/11 03:24:43;;;;;;;1.00;0.80;;;27.10;96.70;;;;;;4983723;28;20516;-79
2022/08/11 03:27:27;;;;;;;2.80;0.95;;;27.00;96.70;;;;;;4983535;28;20050;-78
2022/08/11 03:30:07;;;;;;;4.07;1.10;;;27.10;96.70;;;;;;4974840;28;20049;-78
2022/08/11 03:36:02;;;;;;;4.35;1.33;;;27.00;96.70;;;;;;4983181;28;20098;-79
2022/08/11 03:38:45;;;;;;;2.40;1.02;;;27.00;96.70;;;;;;4981193;28;20046;-78
2022/08/11 03:41:44;;;;;;;1.67;1.00;;;26.90;96.70;;;;;;4983515;28;20042;-78
2022/08/11 03:44:44;;;;;;;2.80;1.10;;;26.90;96.70;;;;;;4984304;28;20047;-78
2022/08/11 03:47:23;;;;;;;4.70;1.13;;;26.90;96.70;;;;;;4982630;28;20308;-78
2022/08/11 03:50:06;;;;;;;1.85;1.05;;;26.90;96.70;;;;;;4989116;28;20038;-78
2022/08/11 03:52:47;;;;;;;5.05;1.00;;;27.00;96.70;;;;;;4980235;28;20081;-78
2022/08/11 03:55:26;;;;;;;2.97;1.20;;;26.90;96.70;;;;;;4983720;28;20508;-78
2022/08/11 03:58:31;;;;;;;2.78;1.23;;;27.00;96.70;;;;;;4984798;28;20047;-78
2022/08/11 04:01:43;;;;;;;2.72;1.40;;;27.00;96.70;;;;;;4966877;28;20044;-78
2022/08/11 04:04:43;;;;;;;2.20;1.20;;;27.00;96.70;;;;;;4978425;28;20054;-77
2022/08/11 04:07:56;;;;;;;3.22;1.10;;;27.00;96.70;;;;;;4981084;28;20042;-78
2022/08/11 04:10:58;;;;;;;2.75;1.23;;;26.90;96.70;;;;;;4961706;28;20042;-78
2022/08/11 04:17:07;;;;;;;1.65;1.20;;;27.00;96.70;;;;;;4984018;28;20042;-78
2022/08/11 04:20:22;;;;;;;2.75;1.10;;;27.00;96.70;;;;;;4979614;28;20053;-78
2022/08/11 04:23:13;;;;;;;4.55;1.00;;;27.00;96.70;;;;;;4981007;28;20230;-78
2022/08/11 04:26:43;;;;;;;1.73;1.00;;;27.00;96.70;;;;;;4966131;28;20046;-78
2022/08/11 04:29:29;;;;;;;2.70;1.17;;;26.90;96.70;;;;;;4950387;28;20066;-78
2022/08/11 04:32:43;;;;;;;2.03;1.23;;;26.90;96.70;;;;;;4984665;28;20049;-78
2022/08/11 04:35:25;;;;;;;1.48;0.98;;;27.00;96.70;;;;;;4933862;28;20386;-78
2022/08/11 04:38:37;;;;;;;7.32;2.10;;;27.00;96.70;;;;;;4983371;28;20042;-78
2022/08/11 04:41:30;;;;;;;2.25;1.17;;;27.00;96.70;;;;;;4982175;28;20516;-79
2022/08/11 04:44:38;;;;;;;6.45;1.80;;;27.00;96.70;;;;;;4966252;28;20054;-78
2022/08/11 05:03:23;;;;;;;1.75;1.13;;;27.20;96.70;;;;;;4981273;28;20105;-82
2022/08/11 05:06:21;;;;;;;2.45;1.00;;;27.10;96.70;;;;;;4968376;28;20098;-82
2022/08/11 05:09:22;;;;;;;5.78;1.10;;;27.10;96.70;;;;;;4983226;28;20055;-82
2022/08/11 05:12:31;;;;;;;1.63;1.00;;;27.10;96.70;;;;;;4980040;28;20660;-81
2022/08/11 05:35:31;;;;;;;;;;;27.40;96.70;;;;;;4969254;28;20053;-81
2022/08/11 05:58:37;;;;;;;3.92;0.90;;;27.50;96.70;;;;;;4989468;28;20050;-83
2022/08/11 06:01:11;;;;;;;2.88;1.20;;;27.50;96.70;;;;;;4990771;28;20081;-88
2022/08/11 06:06:33;;;;;;;2.05;1.10;;;27.60;96.70;;;;;;4985698;28;20148;-85
2022/08/11 06:09:02;;;;;;;4.55;1.05;;;27.60;96.70;;;;;;4991303;28;20090;-86
2022/08/11 06:11:31;;;;;;;5.40;1.40;;;27.70;96.70;;;;;;4990566;28;20053;-86
2022/08/11 06:14:14;;;;;;;2.03;1.05;;;27.70;96.70;;;;;;4986635;28;20113;-88
2022/08/11 06:16:46;;;;;;;2.88;1.00;;;27.80;96.70;;;;;;4989935;28;20046;-88
2022/08/11 06:19:15;;;;;;;3.72;1.25;;;27.80;96.70;;;;;;4987994;28;20050;-83
2022/08/11 06:21:47;;;;;;;2.15;1.05;;;27.80;96.70;;;;;;4989745;28;20050;-81
2022/08/11 06:24:16;;;;;;;2.20;1.17;;;28.00;96.70;;;;;;4986773;28;20054;-84
2022/08/11 06:26:50;;;;;;;5.22;1.02;;;28.00;96.70;;;;;;4989696;28;20053;-81
2022/08/11 06:29:48;;;;;;;4.47;0.93;;;28.00;96.70;;;;;;4979398;28;20444;-78
2022/08/11 06:32:27;;;;;;;4.70;1.00;;;28.10;96.70;;;;;;4985321;28;20050;-78
2022/08/11 06:35:06;;;;;;;2.25;0.93;;;28.10;96.70;;;;;;4984439;28;20050;-78
2022/08/11 06:37:44;;;;;;;5.07;1.40;;;28.20;96.70;;;;;;4968145;28;20054;-78
2022/08/11 06:40:26;;;;;;;3.30;1.25;;;28.30;96.70;;;;;;4970439;28;20053;-85
2022/08/11 06:43:00;;;;;;;6.20;1.00;;;28.30;96.70;;;;;;4989334;28;20125;-84
2022/08/11 06:45:36;;;;;;;4.72;1.20;;;28.40;96.70;;;;;;4973545;28;20058;-84
2022/08/11 06:48:14;;;;;;;3.47;1.85;;;28.50;96.70;;;;;;4984598;28;20042;-85
2022/08/11 06:53:42;;;;;;;2.88;1.30;;;28.60;96.70;;;;;;4972535;28;20050;-84
2022/08/11 07:02:32;;;;;;;2.20;1.10;;;28.70;96.70;;;;;;4980593;28;20129;-79
2022/08/11 07:05:07;;;;;;;3.90;1.55;;;28.80;96.70;;;;;;4986775;28;20046;-79
2022/08/11 07:17:19;;;;;;;3.90;1.35;;;29.00;96.70;;;;;;4978055;28;20078;-80
2022/08/11 07:31:24;;;;;;;1.58;1.40;;;29.30;96.70;;;;;;4982639;28;20047;-81
2022/08/11 07:34:02;;;;;;;14.02;9.93;;;29.30;96.70;;;;;;4984012;28;20058;-83
2022/08/11 07:36:39;;;;;;;4.80;3.13;;;29.20;96.70;;;;;;4971573;28;20505;-83
2022/08/11 07:39:14;;;;;;;5.13;3.22;;;29.20;96.70;;;;;;4988848;28;20071;-83
2022/08/11 07:41:43;;;;;;;4.60;3.13;;;29.20;96.70;;;;;;4983120;28;20046;-83
2022/08/11 07:44:15;;;;;;;3.45;1.92;;;29.20;96.70;;;;;;4987643;28;20052;-84
2022/08/11 07:52:28;;;;;;;4.53;1.70;;;29.10;96.70;;;;;;4988303;28;20048;-87
2022/08/11 07:54:59;;;;;;;2.55;1.52;;;29.20;96.70;;;;;;4985061;28;20137;-85
2022/08/11 08:17:49;;;;;;;6.13;1.70;;;29.60;96.30;;;;;;4987591;28;20054;-86
2022/08/11 08:20:39;;;;;;;5.47;2.78;;;29.60;96.50;;;;;;4987927;28;20097;-85
2022/08/11 08:23:08;;;;;;;6.70;1.73;;;29.70;96.30;;;;;;4987747;28;20067;-84
2022/08/11 08:25:38;;;;;;;3.75;1.60;;;29.70;96.40;;;;;;4987337;28;20097;-85
2022/08/11 08:28:10;;;;;;;2.38;1.25;;;29.70;96.10;;;;;;4987419;28;20053;-85
2022/08/11 08:30:49;;;;;;;7.03;6.32;;;29.80;95.80;;;;;;4987685;28;20038;-85
2022/08/11 08:33:22;;;;;;;3.53;2.97;;;29.90;95.70;;;;;;4984598;28;20053;-85
2022/08/11 08:36:10;;;;;;;6.97;2.22;;;30.00;95.60;;;;;;4985724;28;20101;-85
2022/08/11 08:38:41;;;;;;;5.38;1.80;;;30.00;95.60;;;;;;4986951;28;20140;-84
2022/08/11 08:41:10;;;;;;;10.00;2.42;;;30.10;95.80;;;;;;4984741;28;20038;-88
2022/08/11 08:43:47;;;;;;;4.72;1.55;;;30.10;95.50;;;;;;4984861;28;20504;-85
2022/08/11 08:46:20;;;;;;;4.40;2.40;;;30.10;94.80;;;;;;4970563;28;20148;-84
2022/08/11 08:48:51;;;;;;;5.03;1.83;;;30.00;95.20;;;;;;4986992;28;20046;-84
2022/08/11 08:51:34;;;;;;;6.05;1.42;;;30.00;94.80;;;;;;4987819;28;20105;-84
2022/08/11 08:54:28;;;;;;;8.35;1.65;;;30.00;95.30;;;;;;4986193;28;20487;-87
2022/08/11 08:56:57;;;;;;;5.70;1.60;;;29.90;94.80;;;;;;4987267;28;20054;-81
2022/08/11 08:59:26;;;;;;;7.10;1.83;;;29.70;95.10;;;;;;4985870;28;20034;-86
2022/08/11 09:02:15;;;;;;;8.07;1.60;;;29.60;95.20;;;;;;4970568;28;20335;-84
2022/08/11 09:04:46;;;;;;;4.97;1.60;;;29.70;95.90;;;;;;4986858;28;20046;-84
2022/08/11 09:07:17;;;;;;;3.80;1.10;;;29.90;95.70;;;;;;4986064;28;20058;-84
2022/08/11 09:09:47;;;;;;;5.80;1.45;;;29.80;95.30;;;;;;4971330;28;20054;-85
2022/08/11 09:12:18;;;;;;;6.28;1.80;;;29.90;95.60;;;;;;4984040;28;20043;-83
2022/08/11 09:15:10;;;;;;;3.75;1.38;;;30.00;95.10;;;;;;4983507;28;20124;-84
2022/08/11 09:17:40;;;;;;;2.63;1.40;;;30.20;94.10;;;;;;4983624;28;21793;-84
2022/08/11 09:20:12;;;;;;;8.27;1.55;;;30.20;93.60;;;;;;4974516;28;20046;-85
2022/08/11 09:29:00;;;;;;;19.88;2.20;;;30.20;94.40;;;;;;5052460;28;20080;-69
2022/08/11 09:31:32;;;;;;;163.02;13.18;;;30.30;93.10;;;;;;5051603;28;20044;-69
2022/08/11 09:34:08;;;;;;;63.65;6.63;;;30.40;93.40;;;;;;5048077;28;20482;-68
2022/08/11 09:42:15;;;;;;;15.07;2.10;;;30.50;92.80;;;;;;5054284;28;20455;-72
2022/08/11 09:44:52;;;;;;;5.10;4.00;;;30.50;91.20;;;;;;5055948;28;20072;-72
2022/08/11 09:47:23;;;;;;;3.83;1.60;;;30.40;91.50;;;;;;5055894;28;20045;-71
2022/08/11 09:49:54;;;;;;;11.13;5.97;;;30.40;91.10;;;;;;5050474;28;20072;-72
2022/08/11 09:52:23;;;;;;;2.63;1.58;;;30.30;90.70;;;;;;5055686;28;20533;-72
2022/08/11 09:54:54;;;;;;;1.85;1.75;;;30.40;90.90;;;;;;5033605;28;20084;-73
2022/08/11 10:00:13;;;;;;;6.97;3.97;;;30.70;90.60;;;;;;5053795;28;20051;-74
2022/08/11 10:02:44;;;;;;;7.03;4.40;;;30.80;90.90;;;;;;5052758;28;20084;-73
2022/08/11 10:08:04;;;;;;;3.10;1.42;;;31.20;90.50;;;;;;5056249;28;20633;-73
2022/08/11 10:10:36;;;;;;;2.25;1.20;;;31.20;89.60;;;;;;5051286;28;20048;-75
2022/08/11 10:13:09;;;;;;;2.20;1.30;;;31.10;89.70;;;;;;5052925;28;20079;-76
2022/08/11 10:16:00;;;;;;;56.30;5.85;;;31.00;89.20;;;;;;5057017;28;20565;-79
2022/08/11 10:18:51;;;;;;;53.83;5.32;;;31.20;89.70;;;;;;5055947;28;20498;-78
2022/08/11 10:21:27;;;;;;;8.23;1.98;;;31.30;89.00;;;;;;5041372;28;20080;-81
2022/08/11 10:26:54;;;;;;;2.15;1.40;;;31.30;87.90;;;;;;5061651;28;20127;-84
2022/08/11 10:35:25;;;;;;;1.88;1.70;;;31.90;87.30;;;;;;5049378;28;20115;-85
2022/08/11 10:37:54;;;;;;;2.28;1.27;;;32.00;87.10;;;;;;5049170;28;20048;-83
2022/08/11 10:40:39;;;;;;;6.15;1.30;;;32.10;87.00;;;;;;5044958;28;20452;-84
2022/08/11 10:43:12;;;;;;;1.70;1.00;;;32.00;85.40;;;;;;5039854;28;20067;-82
2022/08/11 10:48:36;;;;;;;10.65;9.65;;;32.10;85.70;;;;;;5046965;28;20045;-82
2022/08/11 10:51:12;;;;;;;7.53;3.00;;;32.40;84.70;;;;;;5041325;28;20048;-85
2022/08/11 11:02:04;;;;;;;4.57;1.35;;;32.70;83.60;;;;;;5017172;22;20123;-85
2022/08/11 11:04:43;;;;;;;2.35;1.17;;;32.70;83.50;;;;;;5022583;28;20049;-84
2022/08/11 11:07:22;;;;;;;4.10;3.63;;;32.70;83.90;;;;;;5022857;22;20057;-85
2022/08/11 11:09:56;;;;;;;5.45;1.58;;;33.00;83.40;;;;;;5029283;22;20076;-82
2022/08/11 11:18:14;;;;;;;1.58;1.10;;;33.20;82.90;;;;;;4965763;28;20069;-79
2022/08/11 11:20:45;;;;;;;3.13;1.58;;;33.30;82.30;;;;;;4947589;28;20223;-77
2022/08/11 11:23:19;;;;;;;2.15;1.17;;;33.20;82.30;;;;;;4957212;28;20077;-79
2022/08/11 11:26:13;;;;;;;2.25;1.13;;;33.20;82.00;;;;;;4966503;28;20692;-81
2022/08/11 11:29:05;;;;;;;3.13;1.30;;;33.30;82.00;;;;;;4961270;28;20058;-78
2022/08/11 11:31:49;;;;;;;2.92;1.17;;;33.30;81.70;;;;;;4963419;28;20050;-80
2022/08/11 11:34:35;;;;;;;1.50;1.35;;;33.40;81.30;;;;;;4974865;28;20077;-80
2022/08/11 11:37:21;;;;;;;1.80;1.15;;;33.50;81.40;;;;;;4963597;28;20066;-78
2022/08/11 11:39:50;;;;;;;3.25;1.30;;;33.40;81.60;;;;;;4962000;28;20615;-80
2022/08/11 11:42:20;;;;;;;3.22;1.17;;;33.50;81.30;;;;;;4959645;28;20090;-80
2022/08/11 11:44:49;;;;;;;3.35;1.25;;;33.80;80.90;;;;;;4959270;28;20078;-79
2022/08/11 11:47:23;;;;;;;2.33;1.25;;;34.00;80.60;;;;;;4950335;28;20508;-81
2022/08/11 11:49:53;;;;;;;5.93;5.28;;;34.00;80.30;;;;;;4964627;28;20058;-81
2022/08/11 11:52:26;;;;;;;5.07;1.50;;;34.20;80.60;;;;;;4962418;28;20043;-82
2022/08/11 11:54:56;;;;;;;2.92;1.40;;;34.30;80.00;;;;;;4947682;28;20397;-80
2022/08/11 12:03:18;;;;;;;2.25;1.17;;;34.40;79.40;;;;;;4960385;28;20412;-80
2022/08/11 12:05:51;;;;;;;1.95;1.27;;;34.60;79.20;;;;;;4959090;28;20043;-77
2022/08/11 12:08:21;;;;;;;2.83;1.30;;;34.70;79.10;;;;;;4959436;28;20479;-78
2022/08/11 12:13:49;;;;;;;2.90;1.60;;;34.70;78.70;;;;;;4963845;28;20085;-81
2022/08/11 12:16:19;;;;;;;1.60;1.17;;;34.90;78.50;;;;;;4959441;28;20478;-82
2022/08/11 12:19:04;;;;;;;2.00;0.90;;;34.80;78.40;;;;;;4964312;28;20527;-78
2022/08/11 12:21:36;;;;;;;3.38;1.20;;;35.10;78.90;;;;;;4958954;28;20043;-78
2022/08/11 12:29:47;;;;;;;3.53;1.52;;;35.20;77.60;;;;;;4962042;28;20042;-76
2022/08/11 12:32:26;;;;;;;2.05;1.60;;;34.70;78.20;;;;;;4957523;28;20055;-77
2022/08/11 12:34:56;;;;;;;2.17;1.30;;;34.80;78.40;;;;;;4962748;28;20416;-78
2022/08/11 12:37:29;;;;;;;1.73;1.20;;;34.50;78.30;;;;;;4947220;28;20626;-78
2022/08/11 12:46:08;;;;;;;2.60;1.20;;;34.00;78.90;;;;;;4957066;28;20047;-80
2022/08/11 12:54:56;;;;;;;1.80;1.10;;;34.30;78.10;;;;;;4950753;28;20038;-81
2022/08/11 13:06:01;;;;;;;2.42;1.30;;;34.60;78.60;;;;;;4961307;28;20061;-79
2022/08/11 13:08:34;;;;;;;2.72;1.15;;;34.70;78.00;;;;;;4959683;28;20050;-78
2022/08/11 13:14:14;;;;;;;1.65;1.13;;;34.90;77.10;;;;;;4956135;28;20046;-78
2022/08/11 13:19:33;;;;;;;2.30;1.73;;;35.20;76.40;;;;;;4958372;28;20043;-76
2022/08/11 13:22:03;;;;;;;5.10;2.10;;;35.00;77.10;;;;;;4960263;28;20047;-76
2022/08/11 13:24:35;;;;;;;2.58;1.30;;;35.10;76.60;;;;;;4958216;28;20495;-76
2022/08/11 13:27:05;;;;;;;4.05;1.40;;;35.30;76.70;;;;;;4959011;28;20057;-77
2022/08/11 13:29:34;;;;;;;1.30;1.08;;;35.50;76.50;;;;;;4975072;28;20050;-78
2022/08/11 13:32:03;;;;;;;2.65;1.17;;;35.60;76.60;;;;;;4960515;28;20062;-77
2022/08/11 13:34:32;;;;;;;1.50;1.10;;;36.00;76.10;;;;;;4957602;28;20462;-76
2022/08/11 13:37:03;;;;;;;3.75;1.23;;;36.20;75.50;;;;;;4957071;28;20046;-76
2022/08/11 13:39:33;;;;;;;2.65;1.20;;;36.40;75.10;;;;;;4959439;28;20389;-76
2022/08/11 13:42:04;;;;;;;1.20;1.10;;;36.60;75.40;;;;;;4957760;28;20058;-78
2022/08/11 13:44:35;;;;;;;2.67;0.98;;;36.50;74.90;;;;;;4961939;28;20067;-79
2022/08/11 13:47:06;;;;;;;3.78;1.10;;;36.40;74.70;;;;;;4956883;28;20499;-78
2022/08/11 13:49:37;;;;;;;3.03;1.40;;;36.60;74.80;;;;;;4946894;28;20453;-78
2022/08/11 13:52:11;;;;;;;2.88;1.30;;;36.80;74.70;;;;;;4961336;28;20053;-79
2022/08/11 13:54:41;;;;;;;1.90;1.35;;;36.80;73.90;;;;;;4944435;28;20047;-77
2022/08/11 13:57:13;;;;;;;3.22;1.20;;;36.80;74.10;;;;;;4960302;28;20050;-77
2022/08/11 14:00:09;;;;;;;3.08;1.77;;;37.10;73.60;;;;;;4957534;28;20047;-83
2022/08/11 14:02:55;;;;;;;5.55;3.83;;;37.20;73.40;;;;;;4958101;28;20051;-81
2022/08/11 14:05:27;;;;;;;5.57;2.47;;;37.40;73.70;;;;;;4943525;28;20133;-78
2022/08/11 14:08:06;;;;;;;1.40;1.00;;;37.60;72.80;;;;;;4971644;28;20408;-79
2022/08/11 14:14:12;;;;;;;2.58;1.42;;;37.70;72.40;;;;;;4958798;28;20459;-79
2022/08/11 14:16:42;;;;;;;1.77;1.00;;;37.80;71.80;;;;;;4964029;28;20126;-81
2022/08/11 14:19:14;;;;;;;1.90;1.20;;;38.10;71.90;;;;;;4955965;28;20055;-80
2022/08/11 14:24:37;;;;;;;1.80;0.98;;;38.60;71.40;;;;;;4962781;28;20050;-77
2022/08/11 14:27:07;;;;;;;3.40;1.35;;;38.80;71.10;;;;;;4959520;28;20055;-78
2022/08/11 14:29:57;;;;;;;4.07;2.40;;;38.70;70.70;;;;;;4959799;28;20469;-78
2022/08/11 14:32:25;;;;;;;4.35;3.28;;;38.50;70.60;;;;;;4963959;28;20130;-77
2022/08/11 14:34:55;;;;;;;3.53;2.75;;;38.30;70.20;;;;;;4960790;28;20047;-77
2022/08/11 14:37:26;;;;;;;5.50;1.23;;;38.10;70.80;;;;;;4965821;28;20042;-79
2022/08/11 14:39:58;;;;;;;2.85;1.50;;;38.50;70.70;;;;;;4963653;28;20446;-78
2022/08/11 14:48:26;;;;;;;2.85;1.20;;;39.40;69.70;;;;;;4972547;28;20051;-78
2022/08/11 14:50:54;;;;;;;1.58;1.05;;;39.70;69.40;;;;;;4965423;28;20051;-80
2022/08/11 14:53:23;;;;;;;2.47;1.25;;;39.80;68.60;;;;;;4962465;28;20051;-79
2022/08/11 14:58:41;;;;;;;1.63;1.15;;;39.80;68.80;;;;;;4962358;28;20053;-77
2022/08/11 15:03:59;;;;;;;2.42;1.02;;;39.50;68.20;;;;;;4978371;28;20181;-80
2022/08/11 15:06:54;;;;;;;1.95;1.20;;;39.50;69.00;;;;;;4963466;28;20118;-80
2022/08/11 15:09:22;;;;;;;;;;;39.90;68.40;;;;;;4957382;28;20504;-81
2022/08/11 15:12:15;;;;;;;3.13;1.27;;;40.30;68.10;;;;;;4963805;28;19946;-80
2022/08/11 15:17:51;;;;;;;1.63;0.90;;;40.50;67.30;;;;;;4954614;28;20051;-80
2022/08/11 15:25:57;;;;;;;2.78;1.27;;;40.60;67.20;;;;;;4962373;28;20162;-79
2022/08/11 15:48:15;;;;;;;3.70;1.45;;;40.30;67.20;;;;;;4960623;28;20602;-76
2022/08/11 15:50:51;;;;;;;3.20;1.15;;;40.10;67.60;;;;;;4955794;28;20055;-78
2022/08/11 15:53:29;;;;;;;2.65;1.45;;;40.60;67.10;;;;;;4964242;28;20078;-77
2022/08/11 15:56:00;;;;;;;3.00;1.15;;;41.20;66.80;;;;;;4957724;28;20050;-77
2022/08/11 16:04:10;;;;;;;2.40;1.40;;;41.80;65.30;;;;;;4956860;28;20627;-77
2022/08/11 16:04:45;;;;;;;6.05;1.85;;;42.20;65.50;;;;;;4959359;28;20055;-76
2022/08/11 16:07:16;;;;;;;2.00;1.40;;;42.40;65.20;;;;;;4957894;28;20102;-76
2022/08/11 16:09:48;;;;;;;4.60;1.30;;;42.40;64.70;;;;;;4944129;28;20054;-76
2022/08/11 16:12:23;;;;;;;2.38;1.33;;;42.10;64.40;;;;;;4961714;28;20074;-76
2022/08/11 16:17:51;;;;;;;5.10;2.55;;;42.00;65.10;;;;;;4964839;28;20051;-80
2022/08/11 16:20:21;;;;;;;3.50;1.92;;;42.20;64.60;;;;;;4951408;28;20043;-79
2022/08/11 16:22:54;;;;;;;3.00;1.60;;;41.80;65.00;;;;;;4960077;28;20043;-79
2022/08/11 16:25:33;;;;;;;2.38;1.70;;;40.40;66.50;;;;;;4959708;28;20385;-79
2022/08/11 16:28:22;;;;;;;1.52;1.33;;;39.60;67.10;;;;;;4959231;28;20047;-80
2022/08/11 16:30:51;;;;;;;2.75;1.40;;;38.60;68.00;;;;;;4962464;28;20059;-81
2022/08/11 16:33:23;;;;;;;1.80;1.05;;;38.20;69.00;;;;;;4953510;28;20402;-81
2022/08/11 16:39:03;;;;;;;4.20;1.42;;;38.40;68.80;;;;;;4965851;28;20043;-83
2022/08/11 16:47:15;;;;;;;2.28;1.13;;;37.60;69.60;;;;;;4959129;28;20055;-80
2022/08/11 16:49:46;;;;;;;2.58;1.30;;;36.80;70.30;;;;;;4963823;28;20047;-81
2022/08/11 16:52:21;;;;;;;2.00;1.35;;;36.40;71.20;;;;;;4964307;28;20049;-78
2022/08/11 16:54:50;;;;;;;6.00;1.30;;;36.50;71.40;;;;;;4954894;28;20054;-78
2022/08/11 17:00:30;;;;;;;2.10;1.27;;;35.50;72.00;;;;;;4918062;29;20043;-78
2022/08/11 17:14:37;;;;;;;3.35;1.30;;;34.10;74.20;;;;;;4962689;28;20142;-79
2022/08/11 17:17:11;;;;;;;1.80;0.90;;;34.20;74.60;;;;;;4963242;28;20409;-77
2022/08/11 17:19:44;;;;;;;2.85;1.38;;;34.40;74.30;;;;;;4960004;28;20043;-80
2022/08/11 17:25:27;;;;;;;6.30;4.05;;;35.20;72.30;;;;;;4960137;28;20073;-75
2022/08/11 17:27:58;;;;;;;3.60;2.45;;;36.00;71.40;;;;;;4960680;28;20053;-76
2022/08/11 17:35:27;;;;;;;4.88;2.13;;;36.20;70.90;;;;;;4959175;28;20046;-75
2022/08/11 17:36:02;;;;;;;5.30;1.60;;;34.80;72.20;;;;;;4955761;28;20054;-75
2022/08/11 17:38:32;;;;;;;2.13;1.23;;;34.40;73.30;;;;;;4962348;28;20043;-74
2022/08/11 17:49:30;;;;;;;4.22;1.50;;;33.70;74.90;;;;;;4966258;28;20602;-75
2022/08/11 18:00:24;;;;;;;2.97;1.40;;;33.40;75.90;;;;;;4965208;28;20074;-75
2022/08/11 18:05:44;;;;;;;1.35;1.00;;;33.20;76.30;;;;;;4959956;28;20448;-77
